ADDS METAR Data INFO
IDs: Format: Raw Decoded Include TAF

Data at: 0744 UTC 21 Jul 2018

PAMR 210653Z 31004KT 10SM CLR 16/12 A3033 RMK AO2 SLP273 T01560117
PAMR 210553Z 32005KT 10SM CLR 17/12 A3032 RMK AO2 SLP269 T01670117 10194 20156 55001
PAMR 210453Z 32003KT 10SM CLR 18/11 A3032 RMK AO2 SLP268 T01780111
PAMR 210353Z 32005KT 10SM CLR 18/12 A3032 RMK AO2 SLP269 T01830117
PAMR 210253Z 31005KT 10SM CLR 19/12 A3033 RMK AO2 SLP270 T01890117 56008
PAMR 210153Z 32006KT 10SM CLR 19/12 A3033 RMK AO2 SLP273 T01890122
PAMR 210053Z VRB04KT 10SM CLR 17/12 A3034 RMK AO2 SLP275 T01720122
PAMR 202353Z 29007KT 10SM CLR 17/12 A3035 RMK AO2 SLP279 T01670117 10167 20128 58004
PAMR 202338Z 30008KT 10SM SCT012 16/12 A3035 RMK AO2 T01560117
PAMR 202253Z VRB03KT 10SM OVC011 15/12 A3036 RMK AO2 SLP281 T01500117
PAMR 202224Z COR 28006KT 10SM SCT008 OVC011 14/11 A3036 RMK AO2 T01390111
PAMR 202153Z 30005KT 10SM OVC009 13/11 A3037 RMK AO2 SLP284 T01330111
PAMR 202053Z VRB05KT 10SM OVC008 13/11 A3036 RMK AO2 SLP283 T01330111 52004
PAMR 201953Z 31005KT 5SM BR OVC007 13/11 A3036 RMK AO2 SLP281 T01280106
PAMR 201853Z 25004KT 10SM OVC008 13/11 A3036 RMK AO2 SLP281 T01280111
PAMR 201803Z 27003KT 10SM OVC008 13/11 A3035 RMK AO2 T01280111
PAMR 201753Z 26004KT 10SM OVC010 13/11 A3035 RMK AO2 SLP279 T01280111 10128 20106 53006
PAMR 201653Z VRB05KT 10SM OVC008 12/11 A3034 RMK AO2 SLP276 T01220111
PAMR 201600Z 00000KT 10SM OVC008 12/11 A3034 RMK AO2 T01170111
PAMR 201553Z 00000KT 10SM OVC010 12/11 A3034 RMK AO2 SLP274 T01170106
PAMR 201453Z 00000KT 10SM OVC010 12/11 A3033 RMK AO2 SLP273 T01170106 51006
PAMR 201353Z 00000KT 10SM OVC011 11/11 A3033 RMK AO2 SLP272 T01110106
PAMR 201300Z 23003KT 10SM OVC011 11/11 A3033 RMK AO2 T01110106
PAMR 201253Z 25003KT 10SM SCT011 11/11 A3033 RMK AO2 SLP271 T01110106
PAMR 201153Z 26005KT 10SM SCT011 11/10 A3032 RMK AO2 SLP267 T01110100 10150 20111 51006
PAMR 201053Z 26004KT 10SM SCT011 12/11 A3032 RMK AO2 SLP267 T01170106
PAMR 201034Z 26004KT 10SM BKN010 12/11 A3031 RMK AO2 T01170106
PAMR 200953Z 27003KT 10SM CLR 12/11 A3031 RMK AO2 SLP265 T01170111
PAMR 200853Z 00000KT 10SM CLR 12/12 A3030 RMK AO2 SLP261 T01220117 402110094 53014
PAMR 200753Z 26004KT 10SM CLR 13/12 A3028 RMK AO2 SLP255 T01280122
PAMR 200653Z 27007KT 10SM CLR 13/12 A3027 RMK AO2 SLP251 T01330122
PAMR 200553Z 26005KT 10SM CLR 15/12 A3026 RMK AO2 SLP247 T01500117 10211 20150 53004
PAMR 200453Z 28007KT 10SM CLR 17/11 A3025 RMK AO2 SLP244 T01670111
PAMR 200353Z 28007KT 10SM CLR 19/10 A3025 RMK AO2 SLP243 T01890100
PAMR 200253Z 28007KT 10SM CLR 19/11 A3025 RMK AO2 SLP243 T01940106 56005
PAMR 200153Z 29008KT 10SM CLR 20/11 A3025 RMK AO2 SLP243 T02000106
PAMR 200053Z 27008KT 10SM CLR 21/12 A3026 RMK AO2 SLP247 T02060117
PAMR 192353Z 29008KT 10SM FEW060 20/12 A3026 RMK AO2 SLP248 T02000122 10206 20167 58002
PAMR 192253Z 30008KT 10SM CLR 18/13 A3027 RMK AO2 SLP250 T01830128
PAMR 192153Z VRB05KT 10SM CLR 20/12 A3027 RMK AO2 SLP250 T02000122
PAMR 192053Z 27006KT 10SM CLR 19/12 A3027 RMK AO2 SLP251 T01890122 51002
PAMR 191953Z 28007KT 10SM CLR 17/11 A3027 RMK AO2 SLP250 T01720111